CheckWX is a tool to help pilots better visualize weather data.  It is not intended as a substitute for an official pre-flight weather briefing.

08:21:48 UTC

LEZL METAR
Sevilla Airport
Sevilla, Spain
Current

22 mins ago

LEZL 280800Z AUTO 06012KT CAVOK 24/12 Q1018
Observed
May-28 @ 08:00 UTC
Wind
  • 060° at 12 KTS
Visibility
10,000+ meters
Flight Rules
VFR
Cloud Levels
  • Clear skies
Temperature
24°C / 75°F
Dewpoint
12°C / 54°F
Humidity
47%
Altimeter
30.06" Hg
Pressure
1017.92 hPa
Previous

52 mins ago

LEZL 280730Z AUTO 05011KT CAVOK 23/12 Q1018
Observed
May-28 @ 07:30 UTC
Wind
  • 050° at 11 KTS
Visibility
10,000+ meters
Flight Rules
VFR
Cloud Levels
  • Clear skies
Temperature
23°C / 73°F
Dewpoint
12°C / 54°F
Humidity
50%
Altimeter
30.06" Hg
Pressure
1017.92 hPa
Previous

1 hour ago

LEZL 280700Z AUTO 05010KT CAVOK 21/12 Q1018
Observed
May-28 @ 07:00 UTC
Wind
  • 050° at 10 KTS
Visibility
10,000+ meters
Flight Rules
VFR
Cloud Levels
  • Clear skies
Temperature
21°C / 70°F
Dewpoint
12°C / 54°F
Humidity
57%
Altimeter
30.06" Hg
Pressure
1017.92 hPa